Time;durP1;ratioP1;P1;durP2;ratioP2;P2;SDS_P1;SDS_P2;PMS_P1;PMS_P2;Temp;Humidity;BMP_temperature;BMP_pressure;BME280_temperature;BME280_humidity;BME280_pressure;Samples;Min_cycle;Max_cycle;Signal;HPM_P1;HPM_P2
2022/03/27 00:01:23;;;;;;;;;;;;;;;21.66;40.87;96695.72;10521478;28;1776;-54
2022/03/27 00:06:24;;;;;;;;;;;;;;;21.65;40.58;96700.22;10503780;28;1812;-52
2022/03/27 00:11:25;;;;;;;;;;;;;;;21.61;40.74;96700.97;10502060;28;1896;-53
2022/03/27 00:16:26;;;;;;;;;;;;;;;21.60;40.29;96700.19;10500831;28;1917;-54
2022/03/27 00:21:27;;;;;;;;;;;;;;;21.61;40.20;96693.06;10506811;28;1831;-54
2022/03/27 00:26:27;;;;;;;;;;;;;;;21.58;40.23;96701.47;10489371;28;1999;-55
2022/03/27 00:31:35;;;;;;;;;;;;;;;21.59;39.83;96695.16;10505019;28;1839;-51
2022/03/27 00:36:36;;;;;;;;;;;;;;;21.60;39.46;96697.53;10519300;28;2002;-55
2022/03/27 00:41:37;;;;;;;;;;;;;;;21.61;39.09;96699.13;10497549;28;1938;-55
2022/03/27 00:46:37;;;;;;;;;;;;;;;21.63;38.84;96707.59;10497868;28;1835;-52
2022/03/27 00:51:37;;;;;;;;;;;;;;;21.64;38.96;96703.09;10521060;28;1884;-56
2022/03/27 00:56:38;;;;;;;;;;;;;;;21.64;37.89;96703.88;10505569;28;1968;-53
2022/03/27 01:01:39;;;;;;;;;;;;;;;21.66;38.43;96695.72;10514548;28;1929;-54
2022/03/27 01:06:41;;;;;;;;;;;;;;;21.66;38.30;96690.44;10505252;28;2234;-56
2022/03/27 01:11:41;;;;;;;;;;;;;;;21.67;37.83;96692.03;10528488;28;1978;-53
2022/03/27 01:16:43;;;;;;;;;;;;;;;21.67;37.32;96690.19;10532956;28;1979;-55
2022/03/27 01:21:44;;;;;;;;;;;;;;;21.68;36.97;96683.06;10525798;28;1900;-56
2022/03/27 01:26:44;;;;;;;;;;;;;;;21.68;36.30;96677.78;10506116;28;1974;-56
2022/03/27 01:31:46;;;;;;;;;;;;;;;21.69;36.87;96676.75;10524953;28;1906;-53
2022/03/27 01:36:47;;;;;;;;;;;;;;;21.69;36.02;96671.47;10512344;28;1974;-56
2022/03/27 01:41:48;;;;;;;;;;;;;;;21.69;36.17;96674.09;10511226;28;2027;-56
2022/03/27 01:46:49;;;;;;;;;;;;;;;21.70;35.83;96667.78;10507333;28;1873;-56
2022/03/27 01:51:49;;;;;;;;;;;;;;;21.72;35.57;96665.69;10509466;28;1895;-57
2022/03/27 01:56:49;;;;;;;;;;;;;;;21.74;35.21;96660.94;10525920;28;1973;-56
2022/03/27 02:01:50;;;;;;;;;;;;;;;21.76;34.81;96658.81;10503722;28;1957;-55
2022/03/27 02:06:50;;;;;;;;;;;;;;;21.77;34.88;96665.69;10524588;28;1899;-57
2022/03/27 02:11:51;;;;;;;;;;;;;;;21.77;34.60;96660.41;10525517;28;1962;-56
2022/03/27 02:16:51;;;;;;;;;;;;;;;21.81;34.20;96664.09;10525758;28;1910;-56
2022/03/27 02:21:52;;;;;;;;;;;;;;;21.81;34.15;96664.09;10528649;28;1841;-56
2022/03/27 02:26:52;;;;;;;;;;;;;;;21.82;33.07;96665.75;10519904;28;1971;-55
2022/03/27 02:31:54;;;;;;;;;;;;;;;21.83;33.91;96662.03;10522952;28;2010;-55
2022/03/27 02:36:54;;;;;;;;;;;;;;;21.86;33.36;96664.94;10512199;28;1906;-52
2022/03/27 02:41:54;;;;;;;;;;;;;;;21.87;33.20;96663.09;10510149;28;1909;-55
2022/03/27 02:46:55;;;;;;;;;;;;;;;21.86;32.56;96669.44;10521024;28;1809;-56
2022/03/27 02:51:56;;;;;;;;;;;;;;;21.88;32.28;96666.53;10527492;28;2032;-56
2022/03/27 02:56:56;;;;;;;;;;;;;;;21.87;32.26;96665.75;10520113;22;2419;-39
2022/03/27 03:01:57;;;;;;;;;;;;;;;21.91;31.34;96666.03;10528768;28;2026;-37
2022/03/27 03:07:00;;;;;;;;;;;;;;;21.93;30.82;96674.50;10528873;28;1936;-36
2022/03/27 03:12:00;;;;;;;;;;;;;;;21.92;31.02;96671.03;10491505;28;1889;-46
2022/03/27 03:17:01;;;;;;;;;;;;;;;21.93;30.46;96669.22;10489102;28;1923;-39
2022/03/27 03:22:02;;;;;;;;;;;;;;;21.96;30.26;96668.66;10473824;28;1840;-39
2022/03/27 03:27:02;;;;;;;;;;;;;;;21.96;30.00;96656.28;10481929;28;1893;-39
2022/03/27 03:32:03;;;;;;;;;;;;;;;21.95;30.25;96667.88;10497865;28;1835;-42
2022/03/27 03:37:04;;;;;;;;;;;;;;;21.95;29.98;96656.53;10482396;28;1967;-40
2022/03/27 03:42:06;;;;;;;;;;;;;;;22.01;29.67;96668.69;10493130;28;1818;-39
2022/03/27 03:47:06;;;;;;;;;;;;;;;21.99;29.76;96661.03;10485826;28;1820;-39
2022/03/27 03:52:09;;;;;;;;;;;;;;;21.99;29.23;96662.88;10462374;28;1880;-39
2022/03/27 03:57:10;;;;;;;;;;;;;;;21.98;29.21;96663.94;10471467;28;1916;-37
2022/03/27 04:02:13;;;;;;;;;;;;;;;21.99;29.25;96668.94;10486824;28;1517;-41
2022/03/27 04:07:14;;;;;;;;;;;;;;;21.97;29.41;96665.75;10466417;28;1468;-43
2022/03/27 04:12:14;;;;;;;;;;;;;;;21.99;28.78;96661.03;10464948;28;2021;-39
2022/03/27 04:17:22;;;;;;;;;;;;;;;22.00;29.06;96664.47;10468003;28;1874;-40
2022/03/27 04:22:23;;;;;;;;;;;;;;;22.00;28.72;96657.34;10483742;28;1764;-41
2022/03/27 04:27:24;;;;;;;;;;;;;;;22.00;28.62;96656.53;10482481;28;1892;-38
2022/03/27 04:32:24;;;;;;;;;;;;;;;21.98;28.20;96656.81;10478543;28;1914;-40
2022/03/27 04:37:25;;;;;;;;;;;;;;;21.96;27.68;96653.63;10479468;28;1924;-37
2022/03/27 04:42:26;;;;;;;;;;;;;;;21.96;27.34;96652.84;10471162;28;1912;-43
2022/03/27 04:47:27;;;;;;;;;;;;;;;21.97;27.72;96659.72;10493666;28;1820;-38
2022/03/27 04:52:28;;;;;;;;;;;;;;;21.97;27.38;96655.22;10464325;28;2321;-40
2022/03/27 04:57:32;;;;;;;;;;;;;;;21.95;27.14;96651.25;10469714;28;1853;-38
2022/03/27 05:02:33;;;;;;;;;;;;;;;21.95;27.18;96657.31;10477964;28;1932;-38
2022/03/27 05:07:37;;;;;;;;;;;;;;;21.96;26.89;96658.91;10490948;28;1838;-39
2022/03/27 05:12:37;;;;;;;;;;;;;;;21.96;26.98;96674.75;10449668;28;1910;-39
2022/03/27 05:17:51;;;;;;;;;;;;;;;21.95;26.67;96665.22;10466935;28;1774;-39
2022/03/27 05:22:52;;;;;;;;;;;;;;;21.95;25.68;96667.09;10483305;28;1819;-38
2022/03/27 05:27:56;;;;;;;;;;;;;;;21.97;25.79;96671.03;10491905;28;1831;-38
2022/03/27 05:32:57;;;;;;;;;;;;;;;21.95;25.42;96672.38;10482488;28;1992;-43
2022/03/27 05:37:58;;;;;;;;;;;;;;;21.93;25.24;96675.25;10487375;28;1776;-38
2022/03/27 05:42:59;;;;;;;;;;;;;;;21.93;24.64;96680.53;10452331;28;1788;-38
2022/03/27 05:48:00;;;;;;;;;;;;;;;21.93;24.36;96682.41;10493872;28;1827;-38
2022/03/27 05:53:01;;;;;;;;;;;;;;;21.92;24.19;96681.59;10499884;28;2009;-38
2022/03/27 05:58:02;;;;;;;;;;;;;;;21.93;23.59;96683.19;10483913;28;1896;-41
2022/03/27 06:03:03;;;;;;;;;;;;;;;21.93;23.42;96677.91;10490766;28;1957;-43
2022/03/27 06:08:03;;;;;;;;;;;;;;;21.96;23.34;96673.94;10488064;28;1891;-38
2022/03/27 06:13:04;;;;;;;;;;;;;;;21.96;23.30;96677.41;10477899;28;2086;-38
2022/03/27 06:18:07;;;;;;;;;;;;;;;21.96;23.34;96677.41;10478555;28;1838;-39
2022/03/27 06:23:08;;;;;;;;;;;;;;;21.96;23.14;96685.31;10489124;28;2189;-38
2022/03/27 06:28:08;;;;;;;;;;;;;;;21.98;23.52;96685.84;10474242;28;1867;-44
2022/03/27 06:33:08;;;;;;;;;;;;;;;21.98;23.71;96688.50;10472077;28;2049;-38
2022/03/27 06:38:09;;;;;;;;;;;;;;;22.00;23.84;96690.84;10479323;28;1873;-44
2022/03/27 06:43:10;;;;;;;;;;;;;;;22.00;23.72;96688.22;10484894;28;1858;-37
2022/03/27 06:48:10;;;;;;;;;;;;;;;21.99;23.03;96695.34;10479495;28;1851;-40
2022/03/27 06:53:14;;;;;;;;;;;;;;;22.00;23.27;96704.06;10491441;28;2098;-38
2022/03/27 06:58:15;;;;;;;;;;;;;;;22.03;24.22;96701.69;10485515;28;1899;-37
2022/03/27 07:03:15;;;;;;;;;;;;;;;22.03;23.19;96703.56;10465263;28;1875;-38
2022/03/27 07:08:16;;;;;;;;;;;;;;;22.04;23.05;96703.28;10471431;28;2016;-38
2022/03/27 07:13:17;;;;;;;;;;;;;;;22.05;23.30;96704.84;10469593;28;1962;-40
2022/03/27 07:18:17;;;;;;;;;;;;;;;22.06;23.57;96701.19;10485770;28;1878;-38
2022/03/27 07:23:19;;;;;;;;;;;;;;;22.09;23.96;96699.88;10466764;28;1929;-36
2022/03/27 07:28:19;;;;;;;;;;;;;;;22.09;23.34;96705.16;10472953;28;2005;-39
2022/03/27 07:33:21;;;;;;;;;;;;;;;22.08;23.37;96708.84;10491758;28;1904;-38
2022/03/27 07:38:21;;;;;;;;;;;;;;;22.10;23.81;96706.72;10478780;28;1871;-37
2022/03/27 07:43:22;;;;;;;;;;;;;;;22.14;23.57;96713.06;10480268;28;1753;-38
2022/03/27 07:48:22;;;;;;;;;;;;;;;22.11;23.90;96714.41;10488323;28;1808;-38
2022/03/27 07:53:22;;;;;;;;;;;;;;;22.15;24.07;96707.56;10481869;28;1976;-40
2022/03/27 07:58:23;;;;;;;;;;;;;;;22.16;23.74;96708.31;10463173;28;2180;-40
2022/03/27 08:03:23;;;;;;;;;;;;;;;22.15;24.45;96698.84;10472603;28;1880;-39
2022/03/27 08:08:24;;;;;;;;;;;;;;;22.16;24.48;96700.41;10485947;28;1830;-38
2022/03/27 08:13:24;;;;;;;;;;;;;;;22.18;24.09;96701.72;10461211;28;2364;-40
2022/03/27 08:18:24;;;;;;;;;;;;;;;22.20;24.30;96704.91;10474443;28;2103;-37
2022/03/27 08:23:25;;;;;;;;;;;;;;;22.19;24.24;96707.81;10458967;28;1863;-38
2022/03/27 08:28:25;;;;;;;;;;;;;;;22.18;24.65;96699.09;10462925;28;1871;-39
2022/03/27 08:33:26;;;;;;;;;;;;;;;22.18;24.64;96704.38;10466891;28;1977;-38
2022/03/27 08:38:26;;;;;;;;;;;;;;;22.19;24.63;96695.41;10463990;28;2187;-39
2022/03/27 08:43:26;;;;;;;;;;;;;;;22.21;24.74;96713.63;10464964;28;1910;-41
2022/03/27 08:48:29;;;;;;;;;;;;;;;22.20;24.74;96699.63;10453354;28;1839;-39
2022/03/27 08:53:30;;;;;;;;;;;;;;;22.20;25.21;96691.69;10462465;28;1909;-39
2022/03/27 08:58:35;;;;;;;;;;;;;;;22.22;25.22;96691.44;10506898;22;1959;-53
2022/03/27 09:03:35;;;;;;;;;;;;;;;22.23;25.45;96699.13;10525856;28;2039;-55
2022/03/27 09:08:36;;;;;;;;;;;;;;;22.25;25.43;96694.38;10506911;28;1831;-56
2022/03/27 09:13:37;;;;;;;;;;;;;;;22.24;25.49;96697.25;10522210;28;1969;-56
2022/03/27 09:18:42;;;;;;;;;;;;;;;22.26;25.49;96706.50;10505720;28;1912;-54
2022/03/27 09:23:42;;;;;;;;;;;;;;;22.28;25.69;96701.75;10530533;28;1797;-53
2022/03/27 09:28:44;;;;;;;;;;;;;;;22.27;25.68;96697.53;10536265;28;1940;-54
2022/03/27 09:33:48;;;;;;;;;;;;;;;22.28;25.90;96698.31;10515438;28;2287;-55
2022/03/27 09:39:18;;;;;;;;;;;;;;;22.26;26.35;96695.13;10517520;28;2123;-55
2022/03/27 09:44:19;;;;;;;;;;;;;;;22.29;26.17;96686.72;10535805;28;1834;-58
2022/03/27 09:49:22;;;;;;;;;;;;;;;22.29;26.05;96686.72;10509051;28;2163;-56
2022/03/27 09:54:22;;;;;;;;;;;;;;;22.29;26.33;96692.78;10524457;28;1909;-54
2022/03/27 09:59:25;;;;;;;;;;;;;;;22.28;26.53;96683.25;10531262;28;1973;-57
2022/03/27 10:04:27;;;;;;;;;;;;;;;22.29;26.40;96679.59;10528651;28;1832;-56
2022/03/27 10:09:27;;;;;;;;;;;;;;;22.29;26.67;96684.88;10515855;28;1867;-56
2022/03/27 10:14:27;;;;;;;;;;;;;;;22.31;26.57;96681.97;10531252;28;1971;-55
2022/03/27 10:19:32;;;;;;;;;;;;;;;22.30;26.58;96680.34;10507628;28;1771;-57
2022/03/27 10:24:32;;;;;;;;;;;;;;;22.32;27.12;96681.69;10528475;28;1884;-55
2022/03/27 10:29:32;;;;;;;;;;;;;;;22.36;26.82;96682.75;10494836;28;1887;-55
2022/03/27 10:34:33;;;;;;;;;;;;;;;22.35;27.04;96673.25;10509681;28;1969;-57
2022/03/27 10:39:43;;;;;;;;;;;;;;;22.35;27.58;96667.97;10524083;28;1871;-54
2022/03/27 10:45:02;;;;;;;;;;;;;;;22.39;27.67;96660.31;10505246;28;1946;-57
2022/03/27 10:50:05;;;;;;;;;;;;;;;22.38;27.44;96658.72;10513781;28;1826;-57
2022/03/27 10:55:12;;;;;;;;;;;;;;;22.40;27.59;96653.97;10521780;28;2281;-57
2022/03/27 11:00:13;;;;;;;;;;;;;;;22.42;27.46;96642.06;10523837;28;1863;-53
2022/03/27 11:05:29;;;;;;;;;;;;;;;22.40;27.79;96643.41;10533824;28;1873;-56
2022/03/27 11:10:49;;;;;;;;;;;;;;;22.39;27.96;96647.09;10515355;28;1994;-55
2022/03/27 11:16:09;;;;;;;;;;;;;;;22.43;27.73;96642.88;10518933;28;1905;-57
2022/03/27 11:21:10;;;;;;;;;;;;;;;22.43;27.94;96632.31;10507460;28;1854;-56
2022/03/27 11:26:19;;;;;;;;;;;;;;;22.44;29.17;96629.38;10527365;28;1806;-52
2022/03/27 11:31:19;;;;;;;;;;;;;;;22.48;29.19;96627.81;10500976;28;1871;-55
2022/03/27 11:36:20;;;;;;;;;;;;;;;22.51;29.19;96627.28;10511819;28;2032;-52
2022/03/27 11:41:24;;;;;;;;;;;;;;;22.48;28.35;96617.22;10508246;28;1702;-50
2022/03/27 11:46:26;;;;;;;;;;;;;;;22.48;28.09;96616.47;10529990;28;1920;-50
2022/03/27 11:51:26;;;;;;;;;;;;;;;22.45;28.91;96614.34;10508571;28;1877;-51
2022/03/27 11:56:27;;;;;;;;;;;;;;;22.42;28.58;96607.72;10506291;28;1977;-52
2022/03/27 12:01:27;;;;;;;;;;;;;;;22.42;29.23;96597.16;10500477;28;1895;-51
2022/03/27 12:06:28;;;;;;;;;;;;;;;22.43;29.22;96603.25;10492301;28;1818;-55
2022/03/27 12:11:28;;;;;;;;;;;;;;;22.40;29.14;96596.63;10502263;28;2094;-53
2022/03/27 12:16:31;;;;;;;;;;;;;;;22.38;29.34;96590.81;10506405;28;1962;-54
2022/03/27 12:21:31;;;;;;;;;;;;;;;22.39;29.13;96589.78;10525025;28;1816;-52
2022/03/27 12:31:54;;;;;;;;;;;;;;;22.38;29.75;96577.63;10500132;28;2105;-55
2022/03/27 12:37:08;;;;;;;;;;;;;;;22.38;29.42;96577.63;10505550;28;2013;-55
2022/03/27 12:42:27;;;;;;;;;;;;;;;22.36;29.61;96578.97;10506080;28;1976;-55
2022/03/27 12:47:31;;;;;;;;;;;;;;;22.33;29.67;96576.81;10508373;28;1791;-56
2022/03/27 12:52:32;;;;;;;;;;;;;;;22.33;30.05;96575.00;10514341;28;2323;-56
2022/03/27 12:57:47;;;;;;;;;;;;;;;22.34;30.07;96566.00;10539008;28;1973;-54
2022/03/27 13:02:47;;;;;;;;;;;;;;;22.33;30.29;96568.91;10540255;27;2089;-56
2022/03/27 13:07:52;;;;;;;;;;;;;;;22.34;30.37;96566.00;10513151;28;1976;-54
2022/03/27 13:12:56;;;;;;;;;;;;;;;22.35;30.51;96567.59;10527158;28;1981;-55
2022/03/27 13:18:04;;;;;;;;;;;;;;;22.36;30.76;96555.94;10535657;27;1829;-52
2022/03/27 13:23:04;;;;;;;;;;;;;;;22.37;30.63;96565.47;10538994;27;1828;-51
2022/03/27 13:28:05;;;;;;;;;;;;;;;22.39;30.65;96560.72;10513756;28;1800;-54
2022/03/27 13:33:06;;;;;;;;;;;;;;;22.40;31.05;96543.03;10510991;28;1887;-51
2022/03/27 13:38:08;;;;;;;;;;;;;;;22.40;31.04;96543.78;10512793;28;1910;-54
2022/03/27 13:43:09;;;;;;;;;;;;;;;22.41;30.83;96540.09;10510452;28;1826;-50
2022/03/27 13:48:10;;;;;;;;;;;;;;;22.42;30.86;96541.69;10511782;28;1854;-56
2022/03/27 13:53:11;;;;;;;;;;;;;;;22.42;31.00;96530.34;10526943;28;1930;-55
2022/03/27 13:58:11;;;;;;;;;;;;;;;22.40;30.76;96525.31;10516044;28;1855;-54
2022/03/27 14:03:11;;;;;;;;;;;;;;;22.40;30.87;96527.94;10509900;28;2163;-55
2022/03/27 14:08:12;;;;;;;;;;;;;;;22.39;30.78;96525.56;10530858;28;1857;-54
2022/03/27 14:13:12;;;;;;;;;;;;;;;22.38;30.62;96524.00;10511445;28;1911;-54
2022/03/27 14:18:13;;;;;;;;;;;;;;;22.38;30.87;96519.50;10520108;28;2042;-54
2022/03/27 14:23:13;;;;;;;;;;;;;;;22.38;30.97;96518.72;10512716;28;1814;-53
2022/03/27 14:28:14;;;;;;;;;;;;;;;22.42;31.35;96515.25;10507419;28;1916;-55
2022/03/27 14:33:14;;;;;;;;;;;;;;;22.46;31.63;96523.47;10525544;28;1977;-56
2022/03/27 14:38:15;;;;;;;;;;;;;;;22.50;32.17;96512.06;10509602;28;2215;-55
2022/03/27 14:43:15;;;;;;;;;;;;;;;22.52;32.59;96509.19;10511776;28;1857;-54
2022/03/27 14:48:16;;;;;;;;;;;;;;;22.51;33.51;96504.94;10505274;28;1836;-56
2022/03/27 14:53:18;;;;;;;;;;;;;;;22.35;32.25;96508.69;10507792;28;2258;-54
2022/03/27 14:58:18;;;;;;;;;;;;;;;22.34;30.48;96502.59;10509432;22;2103;-50
2022/03/27 15:03:19;;;;;;;;;;;;;;;22.26;28.73;96505.78;10484343;28;1850;-49
2022/03/27 15:08:19;;;;;;;;;;;;;;;22.18;30.20;96492.31;10478255;28;1812;-46
2022/03/27 15:13:20;;;;;;;;;;;;;;;22.13;30.04;96493.13;10447915;28;1917;-46
2022/03/27 15:18:20;;;;;;;;;;;;;;;22.08;29.80;96490.47;10447149;28;1887;-49
2022/03/27 15:23:20;;;;;;;;;;;;;;;22.09;27.30;96480.72;10445394;28;1887;-45
2022/03/27 15:28:21;;;;;;;;;;;;;;;22.07;26.12;96469.63;10452808;28;1967;-50
2022/03/27 15:33:21;;;;;;;;;;;;;;;22.08;27.68;96466.72;10445309;28;1929;-49
2022/03/27 15:38:21;;;;;;;;;;;;;;;22.01;28.35;96471.47;10450555;28;1850;-48
2022/03/27 15:43:22;;;;;;;;;;;;;;;21.93;28.27;96479.16;10440231;28;2462;-48
2022/03/27 15:48:22;;;;;;;;;;;;;;;21.88;27.04;96472.03;10447733;28;1850;-48
2022/03/27 15:53:22;;;;;;;;;;;;;;;21.93;28.54;96477.28;10453649;28;2033;-47
2022/03/27 15:58:23;;;;;;;;;;;;;;;21.87;28.38;96480.97;10442507;28;1810;-50
2022/03/27 16:03:23;;;;;;;;;;;;;;;21.81;27.79;96476.72;10438447;28;1937;-48
2022/03/27 16:08:25;;;;;;;;;;;;;;;21.78;28.22;96470.13;10445486;28;1986;-50
2022/03/27 16:13:28;;;;;;;;;;;;;;;21.77;27.95;96475.66;10443239;28;1909;-50
2022/03/27 16:18:29;;;;;;;;;;;;;;;21.74;25.99;96470.94;10439389;28;1846;-53
2022/03/27 16:23:29;;;;;;;;;;;;;;;21.65;26.72;96477.78;10441464;28;1802;-50
2022/03/27 16:28:30;;;;;;;;;;;;;;;21.65;26.45;96475.94;10452173;28;1891;-50
2022/03/27 16:33:31;;;;;;;;;;;;;;;21.64;27.43;96481.44;10456175;28;1914;-45
2022/03/27 16:38:32;;;;;;;;;;;;;;;21.61;25.25;96469.59;10455451;28;2264;-48
2022/03/27 16:43:32;;;;;;;;;;;;;;;21.60;25.25;96473.28;10452354;28;1865;-50
2022/03/27 16:48:33;;;;;;;;;;;;;;;21.60;26.79;96472.47;10449252;28;1934;-46
2022/03/27 16:53:33;;;;;;;;;;;;;;;21.67;25.10;96470.38;10445496;28;1971;-47
2022/03/27 16:58:33;;;;;;;;;;;;;;;21.62;24.32;96476.44;10433515;28;1832;-50
2022/03/27 17:03:34;;;;;;;;;;;;;;;21.70;24.77;96480.44;10417253;28;1835;-49
2022/03/27 17:08:34;;;;;;;;;;;;;;;21.81;25.29;96477.56;10437457;28;2378;-53
2022/03/27 17:13:35;;;;;;;;;;;;;;;21.77;25.38;96479.09;10446306;28;1977;-51
2022/03/27 17:18:36;;;;;;;;;;;;;;;21.80;25.82;96475.16;10431610;28;1803;-48
2022/03/27 17:23:36;;;;;;;;;;;;;;;21.82;25.98;96484.41;10444001;28;1893;-49
2022/03/27 17:28:37;;;;;;;;;;;;;;;21.85;26.14;96483.88;10451922;28;1989;-46
2022/03/27 17:33:38;;;;;;;;;;;;;;;21.99;26.20;96492.06;10444435;28;1977;-48
2022/03/27 17:38:38;;;;;;;;;;;;;;;22.11;26.24;96487.31;10450342;28;1960;-51
2022/03/27 17:43:38;;;;;;;;;;;;;;;22.24;26.25;96501.81;10437147;28;2128;-51
2022/03/27 17:48:39;;;;;;;;;;;;;;;22.38;26.02;96500.25;10424200;28;1874;-50
2022/03/27 17:53:39;;;;;;;;;;;;;;;22.47;26.16;96501.25;10444220;28;1968;-47
2022/03/27 17:58:39;;;;;;;;;;;;;;;22.54;26.23;96497.31;10447860;28;1925;-51
2022/03/27 18:03:40;;;;;;;;;;;;;;;22.71;26.17;96504.16;10456606;28;1845;-49
2022/03/27 18:08:40;;;;;;;;;;;;;;;22.81;25.96;96506.75;10456197;28;1903;-53
2022/03/27 18:13:43;;;;;;;;;;;;;;;22.83;26.26;96508.09;10452999;28;1969;-51
2022/03/27 18:18:43;;;;;;;;;;;;;;;22.88;26.77;96520.47;10445535;28;2367;-51
2022/03/27 18:23:44;;;;;;;;;;;;;;;22.91;26.59;96522.59;10444121;28;1864;-50
2022/03/27 18:28:44;;;;;;;;;;;;;;;22.93;27.01;96520.47;10452109;28;1932;-54
2022/03/27 18:33:45;;;;;;;;;;;;;;;22.93;27.06;96525.75;10450428;28;2202;-52
2022/03/27 18:38:45;;;;;;;;;;;;;;;22.94;26.70;96532.59;10452487;28;2201;-48
2022/03/27 18:43:45;;;;;;;;;;;;;;;22.91;26.87;96535.81;10437577;28;1894;-52
2022/03/27 18:48:47;;;;;;;;;;;;;;;22.92;26.84;96540.03;10458717;28;2162;-51
2022/03/27 18:53:50;;;;;;;;;;;;;;;22.91;27.50;96543.75;10449985;28;1923;-48
2022/03/27 18:58:51;;;;;;;;;;;;;;;22.90;26.88;96544.78;10442685;28;2159;-47
2022/03/27 19:03:52;;;;;;;;;;;;;;;22.88;26.72;96547.72;10448121;28;1852;-50
2022/03/27 19:08:52;;;;;;;;;;;;;;;22.88;27.73;96544.25;10452449;28;1853;-48
2022/03/27 19:13:52;;;;;;;;;;;;;;;22.88;26.75;96549.53;10453180;28;1991;-53
2022/03/27 19:18:53;;;;;;;;;;;;;;;22.86;27.75;96546.38;10445181;28;1865;-48
2022/03/27 19:23:53;;;;;;;;;;;;;;;22.85;28.45;96545.63;10444776;28;1957;-51
2022/03/27 19:28:54;;;;;;;;;;;;;;;22.83;28.14;96544.28;10448137;28;1833;-52
2022/03/27 19:33:54;;;;;;;;;;;;;;;22.84;28.08;96546.66;10448489;28;1906;-50
2022/03/27 19:38:55;;;;;;;;;;;;;;;22.86;27.42;96549.81;10445370;28;2260;-50
2022/03/27 19:43:55;;;;;;;;;;;;;;;22.79;28.00;96557.25;10449665;28;1839;-49
2022/03/27 19:48:55;;;;;;;;;;;;;;;22.70;28.14;96558.06;10445384;28;1805;-48
2022/03/27 19:53:55;;;;;;;;;;;;;;;22.65;28.01;96557.00;10441311;28;2162;-52
2022/03/27 19:58:57;;;;;;;;;;;;;;;22.63;27.92;96563.63;10442902;28;1826;-48
2022/03/27 20:03:58;;;;;;;;;;;;;;;22.56;28.12;96563.09;10442513;28;1965;-49
2022/03/27 20:08:58;;;;;;;;;;;;;;;22.50;28.56;96567.56;10448898;28;1850;-49
2022/03/27 20:13:59;;;;;;;;;;;;;;;22.49;28.67;96562.56;10445776;28;1902;-48
2022/03/27 20:19:00;;;;;;;;;;;;;;;22.46;28.55;96561.22;10446354;28;1856;-48
2022/03/27 20:24:00;;;;;;;;;;;;;;;22.41;28.59;96571.81;10443084;28;1837;-49
2022/03/27 20:29:01;;;;;;;;;;;;;;;22.39;28.90;96557.28;10451659;28;1790;-50
2022/03/27 20:34:03;;;;;;;;;;;;;;;22.39;28.55;96567.84;10441895;28;1953;-49
2022/03/27 20:39:05;;;;;;;;;;;;;;;22.43;28.32;96568.91;10451958;28;1988;-49
2022/03/27 20:44:08;;;;;;;;;;;;;;;22.45;28.86;96569.41;10438214;28;1837;-50
2022/03/27 20:49:09;;;;;;;;;;;;;;;22.43;29.03;96567.06;10439777;28;1941;-51
2022/03/27 20:54:10;;;;;;;;;;;;;;;22.36;28.86;96568.38;10439973;28;1902;-52
2022/03/27 20:59:10;;;;;;;;;;;;;;;22.43;28.74;96571.53;10436413;28;1930;-53
2022/03/27 21:04:11;;;;;;;;;;;;;;;22.35;28.89;96567.59;10437150;28;1833;-51
2022/03/27 21:09:11;;;;;;;;;;;;;;;22.31;28.49;96566.53;10439054;28;1874;-51
2022/03/27 21:14:12;;;;;;;;;;;;;;;22.31;28.05;96566.53;10443122;28;1911;-48
2022/03/27 21:19:13;;;;;;;;;;;;;;;22.32;27.41;96562.81;10556139;22;2161;-59
2022/03/27 21:24:13;;;;;;;;;;;;;;;22.35;27.42;96569.44;10557686;27;1814;-57
2022/03/27 21:29:14;;;;;;;;;;;;;;;22.30;26.65;96564.94;10540449;27;1905;-56
2022/03/27 21:34:14;;;;;;;;;;;;;;;22.36;27.29;96569.16;10552920;28;1965;-58
2022/03/27 21:39:15;;;;;;;;;;;;;;;22.37;27.61;96568.13;10541843;28;1532;-55
2022/03/27 21:44:15;;;;;;;;;;;;;;;22.44;27.45;96575.78;10537127;28;1831;-58
2022/03/27 21:49:16;;;;;;;;;;;;;;;22.43;27.72;96568.91;10539255;28;1907;-56
2022/03/27 21:54:17;;;;;;;;;;;;;;;22.45;27.75;96564.94;10536724;28;1952;-57
2022/03/27 21:59:17;;;;;;;;;;;;;;;22.47;27.58;96559.38;10537667;28;1890;-59
2022/03/27 22:04:17;;;;;;;;;;;;;;;22.52;27.33;96557.50;10519212;28;1811;-57
2022/03/27 22:09:18;;;;;;;;;;;;;;;22.55;27.68;96562.28;10526532;28;1912;-56
2022/03/27 22:14:18;;;;;;;;;;;;;;;22.56;27.57;96557.78;10520669;28;1985;-58
2022/03/27 22:19:18;;;;;;;;;;;;;;;22.60;27.74;96557.03;10526239;28;1862;-57
2022/03/27 22:24:19;;;;;;;;;;;;;;;22.62;27.69;96552.28;10523908;28;1832;-57
2022/03/27 22:29:19;;;;;;;;;;;;;;;22.61;27.79;96548.03;10524023;28;2121;-57
2022/03/27 22:34:19;;;;;;;;;;;;;;;22.64;27.31;96546.72;10522994;28;1901;-58
2022/03/27 22:39:20;;;;;;;;;;;;;;;22.59;27.17;96542.22;10526163;28;1790;-59
2022/03/27 22:44:21;;;;;;;;;;;;;;;22.55;27.30;96535.84;10524858;28;1952;-57
2022/03/27 22:49:21;;;;;;;;;;;;;;;22.53;27.42;96532.69;10525526;28;1814;-57
2022/03/27 22:54:21;;;;;;;;;;;;;;;22.52;27.26;96530.31;10525807;28;1963;-56
2022/03/27 22:59:22;;;;;;;;;;;;;;;22.52;27.20;96525.81;10525694;28;1866;-56
2022/03/27 23:04:23;;;;;;;;;;;;;;;22.52;26.94;96522.41;10524159;28;1775;-57
2022/03/27 23:09:23;;;;;;;;;;;;;;;22.52;27.08;96514.47;10529608;28;1867;-56
2022/03/27 23:14:24;;;;;;;;;;;;;;;22.52;27.49;96517.88;10517072;28;2300;-55
2022/03/27 23:19:24;;;;;;;;;;;;;;;22.52;27.53;96515.25;10520937;28;1843;-55
2022/03/27 23:24:25;;;;;;;;;;;;;;;22.52;27.45;96528.44;10521904;28;1951;-55
2022/03/27 23:29:26;;;;;;;;;;;;;;;22.49;27.50;96525.56;10525330;28;1866;-55
2022/03/27 23:34:28;;;;;;;;;;;;;;;22.49;27.35;96509.72;10520433;28;1965;-59
2022/03/27 23:39:28;;;;;;;;;;;;;;;22.49;27.44;96515.00;10522910;28;1994;-56
2022/03/27 23:44:29;;;;;;;;;;;;;;;22.49;27.35;96515.78;10523134;28;1788;-57
2022/03/27 23:49:32;;;;;;;;;;;;;;;22.44;27.40;96518.44;10521945;28;1863;-58
2022/03/27 23:54:33;;;;;;;;;;;;;;;22.43;27.72;96510.78;10521251;28;1981;-59
2022/03/27 23:59:34;;;;;;;;;;;;;;;22.43;27.48;96510.78;10521314;28;1896;-58
